Airfield :
LOGIN :

Register | Disclaimer

   EN    FR    IT 

 










Legend :    VFR   Marginal VFR   IFR   Intensive IFR   Very Intensive IFR
Visi :
Ceiling :
>= 8 km
>= 3000ft
5 to 8 km
1000 to 3000 ft
1500m to 5 km
500 to 1000 ft
800 to 1500m
200 to 500 ft
< 800m
< 200 ft
Symbols :   Thunderstorms  Fog  Heavy snow  Heavy precipitations  Wind > 20 kt
SIGMETs :     Misc.  Thunderstorms  Icing  Turbulence  Mountain Waves  Volcanic Ashes






- Airport Elevation : 26 ft
- IATA code : GLA


EGPF - Glasgow

CURRENT METAR :
  • 021720Z AUTO 20009KT 9999 NCD 18/10 Q1013

EXPIRED METARs :
  • 021650Z AUTO 21009KT 9999 FEW043 19/09 Q1013
  • 021620Z AUTO 18009KT 160V230 9999 BKN040 19/09 Q1013
  • 021550Z AUTO 23007KT 200V270 9999 BKN041 18/09 Q1013
  • 021520Z AUTO 22008KT 180V240 9999 BKN043 18/09 Q1013
  • 021450Z AUTO 24005KT 180V290 9999 SCT042 18/08 Q1013

TAF TAF EGPF
Valid from the 02 at 18:00 until the 03 at 18:00 UTC


021658Z 0218/0318 24007KT 9999 SCT030
PROB40 0303/0306 5000 BR
PROB40
TEMPO 0310/0318 7000 SHRA
ATIS : +44 141 887 7449



MET'MAP, your aeronautical weather chart ! - Copyright ORBIFLY December 2007 - Disclaimer

ORBIFLY MET'MAP TEAM :

Programming & Development : Alexandra Zaïnal
Concept & original design : Baudouin d'Aumeries
Assistance for programming : Marc-Olivier Méhu
Technical & hardware support : Manuel Goepfert

Contact : metmap@orbifly.com




SOURCES & CREDITS :

   NOAA